createdAt,value
2018-06-19T00:01:28.585Z,99589.23
2018-06-19T00:03:59.281Z,99584.23
2018-06-19T00:06:29.945Z,99595.48
2018-06-19T00:09:00.090Z,99593.67
2018-06-19T00:11:30.707Z,99593.43
2018-06-19T00:14:01.077Z,99597.87
2018-06-19T00:16:31.656Z,99595.73
2018-06-19T00:19:02.625Z,99593.95
2018-06-19T00:21:39.409Z,99594.98
2018-06-19T00:24:10.095Z,99597.59
2018-06-19T00:26:40.196Z,99605.17
2018-06-19T00:29:11.222Z,99597.56
2018-06-19T00:31:41.953Z,99596.56
2018-06-19T00:34:12.830Z,99590.81
2018-06-19T00:36:43.458Z,99598.91
2018-06-19T00:39:14.268Z,99600.73
2018-06-19T00:41:45.003Z,99599.42
2018-06-19T00:44:15.771Z,99601.80
2018-06-19T00:46:49.711Z,99596.28
2018-06-19T00:49:20.569Z,99596.00
2018-06-19T00:51:51.255Z,99595.73
2018-06-19T00:54:22.121Z,99592.61
2018-06-19T00:56:57.253Z,99595.25
2018-06-19T00:59:29.116Z,99591.57
2018-06-19T01:02:01.576Z,99591.81
2018-06-19T01:04:32.299Z,99592.35
2018-06-19T01:07:02.981Z,99598.36
2018-06-19T01:09:33.628Z,99594.43
2018-06-19T01:12:05.162Z,99601.23
2018-06-19T01:14:36.004Z,99603.83
2018-06-19T01:17:06.629Z,99606.73
2018-06-19T01:19:37.108Z,99607.25
2018-06-19T01:22:07.799Z,99606.47
2018-06-19T01:24:38.654Z,99603.84
2018-06-19T01:27:09.601Z,99603.30
2018-06-19T01:29:40.349Z,99606.67
2018-06-19T01:32:11.182Z,99603.58
2018-06-19T01:34:41.910Z,99608.02
2018-06-19T01:37:12.546Z,99606.98
2018-06-19T01:39:43.309Z,99609.83
2018-06-19T01:42:14.054Z,99611.42
2018-06-19T01:44:44.593Z,99615.88
2018-06-19T01:47:15.276Z,99609.28
2018-06-19T01:49:46.038Z,99610.61
2018-06-19T01:52:16.253Z,99609.59
2018-06-19T01:54:46.762Z,99618.21
2018-06-19T01:57:17.221Z,99617.85
2018-06-19T01:59:48.018Z,99614.15
2018-06-19T02:02:18.702Z,99614.14
2018-06-19T02:04:49.137Z,99614.19
2018-06-19T02:07:19.862Z,99612.09
2018-06-19T02:09:50.647Z,99612.80
2018-06-19T02:12:21.384Z,99609.73
2018-06-19T02:14:52.222Z,99608.16
2018-06-19T02:17:22.952Z,99610.16
2018-06-19T02:19:53.866Z,99610.42
2018-06-19T02:22:24.574Z,99612.27
2018-06-19T02:24:55.164Z,99605.23
2018-06-19T02:27:25.889Z,99610.97
2018-06-19T02:29:56.573Z,99610.22
2018-06-19T02:32:27.355Z,99610.21
2018-06-19T02:34:58.182Z,99605.23
2018-06-19T02:37:28.717Z,99616.74
2018-06-19T02:39:59.601Z,99615.67
2018-06-19T02:42:30.099Z,99621.60
2018-06-19T02:45:01.049Z,99615.91
2018-06-19T02:47:31.807Z,99626.27
2018-06-19T02:50:03.369Z,99626.82
2018-06-19T02:52:34.147Z,99629.92
2018-06-19T02:55:04.711Z,99636.20
2018-06-19T02:57:34.826Z,99629.80
2018-06-19T03:00:06.310Z,99632.31
2018-06-19T03:02:37.126Z,99633.38
2018-06-19T03:05:08.001Z,99635.89
2018-06-19T03:07:38.758Z,99643.30
2018-06-19T03:10:09.634Z,99643.80
2018-06-19T03:12:39.718Z,99644.31
2018-06-19T03:15:10.383Z,99652.95
2018-06-19T03:17:40.948Z,99653.47
2018-06-19T03:20:11.573Z,99654.72
2018-06-19T03:22:42.234Z,99658.59
2018-06-19T03:25:13.101Z,99666.83
2018-06-19T03:27:43.913Z,99662.63
2018-06-19T03:30:14.735Z,99661.25
2018-06-19T03:32:45.421Z,99664.11
2018-06-19T03:35:15.752Z,99659.69
2018-06-19T03:37:46.586Z,99662.41
2018-06-19T03:40:17.528Z,99665.55
2018-06-19T03:42:48.258Z,99660.09
2018-06-19T03:45:19.139Z,99662.48
2018-06-19T03:47:49.565Z,99665.52
2018-06-19T03:50:20.286Z,99664.72
2018-06-19T03:52:50.914Z,99658.08
2018-06-19T03:55:21.641Z,99661.52
2018-06-19T03:57:52.293Z,99664.70
2018-06-19T04:00:23.029Z,99667.62
2018-06-19T04:02:53.461Z,99670.19
2018-06-19T04:05:24.226Z,99670.12
2018-06-19T04:07:55.075Z,99668.38
2018-06-19T04:10:25.963Z,99680.95
2018-06-19T04:12:56.100Z,99675.23
2018-06-19T04:15:27.006Z,99674.96
2018-06-19T04:17:57.645Z,99679.95
2018-06-19T04:20:28.261Z,99675.77
2018-06-19T04:22:58.841Z,99682.81
2018-06-19T04:25:29.516Z,99684.66
2018-06-19T04:28:00.198Z,99681.27
2018-06-19T04:30:30.881Z,99689.66
2018-06-19T04:33:01.558Z,99682.11
2018-06-19T04:35:32.502Z,99688.14
2018-06-19T04:38:02.733Z,99690.22
2018-06-19T04:40:33.465Z,99688.12
2018-06-19T04:43:04.421Z,99689.69
2018-06-19T04:45:34.926Z,99697.81
2018-06-19T04:48:05.809Z,99695.31
2018-06-19T04:50:36.447Z,99691.35
2018-06-19T04:53:07.325Z,99696.03
2018-06-19T04:55:38.151Z,99698.73
2018-06-19T04:58:08.885Z,99703.86
2018-06-19T05:00:38.973Z,99696.83
2018-06-19T05:03:09.641Z,99700.91
2018-06-19T05:05:39.821Z,99702.59
2018-06-19T05:08:10.573Z,99704.21
2018-06-19T05:10:42.173Z,99705.98
2018-06-19T05:13:12.950Z,99707.07
2018-06-19T05:15:43.669Z,99710.14
2018-06-19T05:18:14.722Z,99711.80
2018-06-19T05:20:45.269Z,99710.08
2018-06-19T05:23:16.185Z,99711.92
2018-06-19T05:25:46.866Z,99700.22
2018-06-19T05:28:17.517Z,99701.95
2018-06-19T05:30:48.174Z,99708.41
2018-06-19T05:33:18.933Z,99702.03
2018-06-19T05:35:49.549Z,99704.52
2018-06-19T05:38:20.335Z,99697.45
2018-06-19T05:40:51.004Z,99707.31
2018-06-19T05:43:22.005Z,99706.88
2018-06-19T05:45:53.618Z,99710.84
2018-06-19T05:48:24.309Z,99703.92
2018-06-19T05:50:55.120Z,99710.14
2018-06-19T05:53:25.853Z,99711.55
2018-06-19T05:55:56.431Z,99710.08
2018-06-19T05:58:27.138Z,99710.09
2018-06-19T06:00:57.794Z,99714.90
2018-06-19T06:03:28.590Z,99712.66
2018-06-19T06:05:59.265Z,99716.64
2018-06-19T06:08:30.147Z,99719.42
2018-06-19T06:11:00.249Z,99715.69
2018-06-19T06:13:30.496Z,99721.50
2018-06-19T06:16:01.091Z,99725.15
2018-06-19T06:18:31.961Z,99722.16
2018-06-19T06:21:02.694Z,99723.22
2018-06-19T06:23:33.401Z,99729.42
2018-06-19T06:26:04.002Z,99726.73
2018-06-19T06:28:34.878Z,99723.73
2018-06-19T06:31:04.976Z,99724.38
2018-06-19T06:33:36.117Z,99720.95
2018-06-19T06:36:07.350Z,99720.33
2018-06-19T06:38:38.070Z,99715.86
2018-06-19T06:41:08.925Z,99720.17
2018-06-19T06:43:39.778Z,99724.27
2018-06-19T06:46:10.534Z,99714.92
2018-06-19T06:48:40.864Z,99713.67
2018-06-19T06:51:11.649Z,99709.72
2018-06-19T06:53:42.372Z,99703.16
2018-06-19T06:56:13.166Z,99705.34
2018-06-19T06:58:43.957Z,99706.55
2018-06-19T07:01:14.697Z,99702.83
2018-06-19T07:03:45.473Z,99704.95
2018-06-19T07:06:16.084Z,99700.17
2018-06-19T07:08:47.119Z,99709.30
2018-06-19T07:11:17.823Z,99707.03
2018-06-19T07:13:48.682Z,99704.61
2018-06-19T07:16:19.599Z,99702.85
2018-06-19T07:18:50.203Z,99704.42
2018-06-19T07:21:22.983Z,99699.08
2018-06-19T07:23:56.675Z,99698.84
2018-06-19T07:26:27.447Z,99699.47
2018-06-19T07:28:58.134Z,99704.77
2018-06-19T07:31:28.754Z,99703.19
2018-06-19T07:33:59.397Z,99701.16
2018-06-19T07:36:30.072Z,99700.27
2018-06-19T07:39:00.981Z,99702.66
2018-06-19T07:41:31.687Z,99701.53
2018-06-19T07:44:02.407Z,99691.70
2018-06-19T07:46:33.002Z,99697.92
2018-06-19T07:49:03.878Z,99698.75
2018-06-19T07:51:34.581Z,99698.13
2018-06-19T07:54:05.596Z,99696.87
2018-06-19T07:56:36.712Z,99700.13
2018-06-19T07:59:08.770Z,99698.25
2018-06-19T08:01:39.868Z,99700.91
2018-06-19T08:04:11.653Z,99696.66
2018-06-19T08:06:42.289Z,99698.44
2018-06-19T08:09:13.225Z,99690.83
2018-06-19T08:11:43.845Z,99696.42
2018-06-19T08:14:14.798Z,99690.34
2018-06-19T08:16:45.495Z,99695.50
2018-06-19T08:19:16.485Z,99696.77
2018-06-19T08:21:47.225Z,99687.77
2018-06-19T08:24:18.460Z,99687.13
2018-06-19T08:26:50.371Z,99680.20
2018-06-19T08:29:21.506Z,99683.58
2018-06-19T08:31:53.050Z,99677.75
2018-06-19T08:34:24.150Z,99684.94
2018-06-19T08:36:55.269Z,99684.42
2018-06-19T08:39:25.887Z,99682.73
2018-06-19T08:42:05.284Z,99687.27
2018-06-19T08:44:37.575Z,99690.53
2018-06-19T08:47:08.598Z,99696.48
2018-06-19T08:49:39.046Z,99687.65
2018-06-19T08:52:10.053Z,99686.38
2018-06-19T08:54:41.622Z,99694.82
2018-06-19T08:57:13.069Z,99698.44
2018-06-19T08:59:43.421Z,99706.47
2018-06-19T09:02:15.256Z,99701.81
2018-06-19T09:04:46.663Z,99699.50
2018-06-19T09:07:18.035Z,99704.13
2018-06-19T09:09:48.642Z,99703.80
2018-06-19T09:12:19.601Z,99701.81
2018-06-19T09:14:50.635Z,99704.13
2018-06-19T09:17:21.659Z,99706.86
2018-06-19T09:19:52.879Z,99706.19
2018-06-19T09:22:24.403Z,99705.77
2018-06-19T09:24:56.319Z,99703.06
2018-06-19T09:27:27.440Z,99701.08
2018-06-19T09:29:58.399Z,99692.73
2018-06-19T09:32:29.213Z,99693.83
2018-06-19T09:35:00.356Z,99691.52
2018-06-19T09:37:31.705Z,99693.93
2018-06-19T09:40:03.009Z,99692.84
2018-06-19T09:42:33.691Z,99692.42
2018-06-19T09:45:04.604Z,99690.77
2018-06-19T09:47:37.211Z,99697.08
2018-06-19T09:50:08.161Z,99688.63
2018-06-19T09:52:38.875Z,99684.55
2018-06-19T09:55:10.631Z,99689.72
2018-06-19T09:57:42.435Z,99690.02
2018-06-19T10:00:18.729Z,99689.45
2018-06-19T10:02:49.162Z,99688.60
2018-06-19T10:05:20.089Z,99679.13
2018-06-19T10:07:51.846Z,99683.73
2018-06-19T10:10:23.030Z,99686.38
2018-06-19T10:12:53.996Z,99692.16
2018-06-19T10:15:24.901Z,99696.70
2018-06-19T10:17:55.117Z,99686.98
2018-06-19T10:20:25.613Z,99679.95
2018-06-19T10:22:56.461Z,99681.84
2018-06-19T10:25:27.102Z,99680.25
2018-06-19T10:27:57.558Z,99681.63
2018-06-19T10:30:29.207Z,99677.14
2018-06-19T10:33:00.462Z,99668.83
2018-06-19T10:35:31.371Z,99667.22
2018-06-19T10:38:01.809Z,99673.30
2018-06-19T10:40:32.184Z,99669.68
2018-06-19T10:43:02.551Z,99674.73
2018-06-19T10:45:32.778Z,99674.89
2018-06-19T10:48:02.690Z,99671.53
2018-06-19T10:50:32.590Z,99661.11
2018-06-19T10:53:02.461Z,99661.12
2018-06-19T10:55:33.058Z,99667.64
2018-06-19T10:58:03.377Z,99667.94
2018-06-19T11:00:33.815Z,99657.44
2018-06-19T11:03:04.358Z,99644.81
2018-06-19T11:05:35.090Z,99647.74
2018-06-19T11:08:05.469Z,99657.81
2018-06-19T11:10:35.991Z,99659.03
2018-06-19T11:13:06.790Z,99652.17
2018-06-19T11:15:37.699Z,99654.41
2018-06-19T11:18:08.029Z,99646.64
2018-06-19T11:20:40.134Z,99633.47
2018-06-19T11:24:40.403Z,99641.42
2018-06-19T11:27:11.366Z,99653.62
2018-06-19T11:29:42.641Z,99653.55
2018-06-19T11:32:15.242Z,99650.66
2018-06-19T11:34:48.766Z,99653.89
2018-06-19T11:37:19.974Z,99649.66
2018-06-19T11:39:50.995Z,99651.11
2018-06-19T11:42:22.443Z,99639.59
2018-06-19T11:44:53.343Z,99636.16
2018-06-19T11:47:24.460Z,99643.80
2018-06-19T11:49:55.171Z,99626.31
2018-06-19T11:52:25.941Z,99637.21
2018-06-19T11:54:56.750Z,99635.22
2018-06-19T11:57:27.903Z,99633.62
2018-06-19T11:59:58.605Z,99637.98
2018-06-19T12:02:29.454Z,99636.67
2018-06-19T12:05:00.145Z,99633.27
2018-06-19T12:07:45.682Z,99630.71
2018-06-19T12:10:17.336Z,99627.16
2018-06-19T12:12:48.541Z,99623.31
2018-06-19T12:15:19.254Z,99623.44
2018-06-19T12:17:50.289Z,99625.45
2018-06-19T12:20:20.494Z,99621.66
2018-06-19T12:22:51.394Z,99616.59
2018-06-19T12:25:22.114Z,99612.72
2018-06-19T12:27:53.003Z,99611.00
2018-06-19T12:30:22.933Z,99607.44
2018-06-19T12:32:53.387Z,99610.52
2018-06-19T12:35:23.993Z,99609.16
2018-06-19T12:37:54.956Z,99605.67
2018-06-19T12:40:25.828Z,99608.26
2018-06-19T12:42:56.690Z,99602.99
2018-06-19T12:45:27.222Z,99595.09
2018-06-19T12:47:58.237Z,99590.73
2018-06-19T12:51:47.612Z,99598.65
2018-06-19T12:54:51.862Z,99594.22
2018-06-19T12:57:22.142Z,99594.28
2018-06-19T12:59:52.927Z,99587.86
2018-06-19T13:02:23.575Z,99587.64
2018-06-19T13:05:10.332Z,99586.97
2018-06-19T13:07:43.020Z,99574.38
2018-06-19T13:10:14.284Z,99585.31
2018-06-19T13:13:25.234Z,99593.10
2018-06-19T13:15:56.326Z,99587.91
2018-06-19T13:18:44.075Z,99580.70
2018-06-19T13:21:14.805Z,99581.81
2018-06-19T13:23:45.465Z,99584.39
2018-06-19T13:26:16.150Z,99580.98
2018-06-19T13:30:01.906Z,99590.50
2018-06-19T13:32:33.469Z,99590.02
2018-06-19T13:35:04.668Z,99590.23
2018-06-19T13:37:36.258Z,99583.49
2018-06-19T13:41:29.987Z,99591.70
2018-06-19T13:44:17.030Z,99594.52
2018-06-19T13:46:47.861Z,99590.33
2018-06-19T13:49:18.989Z,99592.22
2018-06-19T13:51:49.886Z,99584.11
2018-06-19T13:54:20.814Z,99583.38
2018-06-19T13:57:52.522Z,99588.38
2018-06-19T14:00:23.371Z,99585.63
2018-06-19T14:02:54.013Z,99597.52
2018-06-19T14:05:25.034Z,99595.70
2018-06-19T14:08:13.079Z,99589.77
2018-06-19T14:11:00.206Z,99594.47
2018-06-19T14:13:30.317Z,99586.80
2018-06-19T14:16:01.447Z,99589.05
2018-06-19T14:18:32.606Z,99601.41
2018-06-19T14:21:03.390Z,99592.00
2018-06-19T14:23:34.171Z,99587.70
2018-06-19T14:26:04.969Z,99584.38
2018-06-19T14:28:35.742Z,99593.62
2018-06-19T14:31:06.573Z,99583.66
2018-06-19T14:33:36.739Z,99587.58
2018-06-19T14:36:07.649Z,99585.09
2018-06-19T14:38:38.303Z,99593.98
2018-06-19T14:41:09.083Z,99590.89
2018-06-19T14:43:39.871Z,99593.70
2018-06-19T14:46:10.707Z,99589.02
2018-06-19T14:48:41.606Z,99596.86
2018-06-19T14:51:12.592Z,99593.36
2018-06-19T14:53:43.166Z,99592.75
2018-06-19T14:56:14.014Z,99591.77
2018-06-19T14:58:44.847Z,99585.05
2018-06-19T15:01:15.635Z,99596.18
2018-06-19T15:03:46.399Z,99589.49
2018-06-19T15:06:17.290Z,99594.00
2018-06-19T15:08:48.022Z,99591.70
2018-06-19T15:11:18.851Z,99589.10
2018-06-19T15:13:49.533Z,99596.15
2018-06-19T15:16:21.338Z,99589.02
2018-06-19T15:18:52.129Z,99592.53
2018-06-19T15:21:23.042Z,99589.92
2018-06-19T15:23:53.750Z,99580.28
2018-06-19T15:26:24.674Z,99585.70
2018-06-19T15:28:55.423Z,99593.95
2018-06-19T15:31:26.149Z,99587.00
2018-06-19T15:33:56.890Z,99580.80
2018-06-19T15:36:27.698Z,99587.02
2018-06-19T15:38:58.566Z,99590.23
2018-06-19T15:41:31.021Z,99593.33
2018-06-19T15:44:01.712Z,99588.20
2018-06-19T15:46:32.429Z,99591.22
2018-06-19T15:49:03.277Z,99591.00
2018-06-19T15:51:34.290Z,99594.75
2018-06-19T15:54:05.222Z,99595.02
2018-06-19T15:56:35.996Z,99591.78
2018-06-19T15:59:06.132Z,99592.69
2018-06-19T16:01:37.199Z,99592.45
2018-06-19T16:04:08.041Z,99594.95
2018-06-19T16:06:39.013Z,99602.42
2018-06-19T16:09:11.568Z,99607.22
2018-06-19T16:11:42.390Z,99599.47
2018-06-19T16:14:13.042Z,99610.34
2018-06-19T16:16:44.038Z,99600.62
2018-06-19T16:19:14.822Z,99607.95
2018-06-19T16:21:45.601Z,99610.45
2018-06-19T16:24:16.281Z,99614.39
2018-06-19T16:26:47.117Z,99619.39
2018-06-19T16:29:18.069Z,99623.30
2018-06-19T16:31:49.689Z,99616.27
2018-06-19T16:34:20.230Z,99621.16
2018-06-19T16:36:51.902Z,99624.27
2018-06-19T16:39:22.635Z,99628.27
2018-06-19T16:41:53.319Z,99628.17
2018-06-19T16:44:23.955Z,99628.96
2018-06-19T16:46:54.834Z,99627.92
2018-06-19T16:49:25.014Z,99632.06
2018-06-19T16:51:55.866Z,99632.32
2018-06-19T16:54:26.705Z,99636.14
2018-06-19T16:56:57.426Z,99639.59
2018-06-19T16:59:28.142Z,99641.80
2018-06-19T17:01:58.810Z,99647.23
2018-06-19T17:04:29.446Z,99653.87
2018-06-19T17:07:00.321Z,99658.08
2018-06-19T17:09:31.176Z,99669.77
2018-06-19T17:12:02.221Z,99675.52
2018-06-19T17:14:32.791Z,99681.59
2018-06-19T17:17:03.719Z,99685.50
2018-06-19T17:19:34.361Z,99686.12
2018-06-19T17:22:05.198Z,99693.48
2018-06-19T17:24:35.821Z,99693.55
2018-06-19T17:27:06.823Z,99696.58
2018-06-19T17:29:37.589Z,99708.00
2018-06-19T17:32:08.586Z,99708.59
2018-06-19T17:34:39.321Z,99707.86
2018-06-19T17:37:09.633Z,99706.52
2018-06-19T17:39:40.332Z,99704.72
2018-06-19T17:42:11.202Z,99706.04
2018-06-19T17:44:41.224Z,99707.20
2018-06-19T17:47:12.194Z,99712.61
2018-06-19T17:49:42.905Z,99710.51
2018-06-19T17:52:13.879Z,99718.44
2018-06-19T17:54:44.635Z,99718.24
2018-06-19T17:57:15.490Z,99721.08
2018-06-19T17:59:46.021Z,99724.55
2018-06-19T18:02:16.862Z,99722.50
2018-06-19T18:04:47.563Z,99726.45
2018-06-19T18:07:18.498Z,99734.63
2018-06-19T18:09:49.117Z,99735.75
2018-06-19T18:12:19.917Z,99747.73
2018-06-19T18:14:50.113Z,99750.14
2018-06-19T18:17:20.678Z,99759.13
2018-06-19T18:19:51.269Z,99763.27
2018-06-19T18:22:22.107Z,99764.94
2018-06-19T18:24:52.779Z,99770.88
2018-06-19T18:27:23.417Z,99770.00
2018-06-19T18:29:54.130Z,99774.57
2018-06-19T18:32:25.118Z,99780.00
2018-06-19T18:34:55.808Z,99781.59
2018-06-19T18:37:26.662Z,99791.64
2018-06-19T18:39:57.308Z,99792.69
2018-06-19T18:42:28.294Z,99795.19
2018-06-19T18:44:59.166Z,99796.97
2018-06-19T18:47:30.073Z,99798.61
2018-06-19T18:50:00.222Z,99803.67
2018-06-19T18:52:31.981Z,99807.85
2018-06-19T18:55:02.447Z,99813.02
2018-06-19T18:57:32.501Z,99810.77
2018-06-19T19:00:03.214Z,99815.61
2018-06-19T19:02:34.411Z,99818.06
2018-06-19T19:05:05.193Z,99822.88
2018-06-19T19:07:35.993Z,99822.08
2018-06-19T19:10:11.489Z,99835.49
2018-06-19T19:12:42.485Z,99828.04
2018-06-19T19:15:18.109Z,99831.63
2018-06-19T19:17:54.613Z,99828.75
2018-06-19T19:20:25.315Z,99833.48
2018-06-19T19:22:56.083Z,99833.30
2018-06-19T19:25:26.217Z,99840.36
2018-06-19T19:28:01.647Z,99835.13
2018-06-19T19:30:32.266Z,99841.70
2018-06-19T19:33:03.245Z,99845.64
2018-06-19T19:35:33.912Z,99842.24
2018-06-19T19:38:09.706Z,99845.62
2018-06-19T19:40:40.386Z,99845.38
2018-06-19T19:43:11.734Z,99851.62
2018-06-19T19:45:42.364Z,99849.31
2018-06-19T19:48:17.899Z,99862.59
2018-06-19T19:50:48.443Z,99860.80
2018-06-19T19:53:19.294Z,99861.35
2018-06-19T19:55:54.839Z,99862.14
2018-06-19T19:58:30.387Z,99869.02
2018-06-19T20:01:01.107Z,99867.20
2018-06-19T20:03:31.733Z,99871.92
2018-06-19T20:06:02.353Z,99869.29
2018-06-19T20:08:33.141Z,99869.30
2018-06-19T20:11:03.765Z,99876.38
2018-06-19T20:13:34.514Z,99872.97
2018-06-19T20:16:05.202Z,99872.73
2018-06-19T20:18:35.965Z,99879.32
2018-06-19T20:21:06.715Z,99872.53
2018-06-19T20:23:37.500Z,99877.22
2018-06-19T20:26:08.206Z,99877.47
2018-06-19T20:28:39.118Z,99874.84
2018-06-19T20:31:09.855Z,99883.53
2018-06-19T20:33:40.666Z,99883.52
2018-06-19T20:36:11.277Z,99882.22
2018-06-19T20:38:42.069Z,99884.32
2018-06-19T20:41:12.747Z,99883.26
2018-06-19T20:43:43.691Z,99892.44
2018-06-19T20:46:14.373Z,99891.91
2018-06-19T20:48:45.010Z,99897.39
2018-06-19T20:51:15.467Z,99897.15
2018-06-19T20:53:46.727Z,99909.20
2018-06-19T20:56:17.512Z,99910.48
2018-06-19T20:58:48.360Z,99914.42
2018-06-19T21:01:19.073Z,99911.80
2018-06-19T21:03:49.977Z,99912.00
2018-06-19T21:06:20.744Z,99913.02
2018-06-19T21:08:51.745Z,99927.30
2018-06-19T21:11:22.346Z,99928.48
2018-06-19T21:13:53.333Z,99926.89
2018-06-19T21:16:23.985Z,99924.95
2018-06-19T21:18:54.701Z,99936.26
2018-06-19T21:21:25.373Z,99934.34
2018-06-19T21:23:56.094Z,99938.31
2018-06-19T21:26:26.781Z,99930.46
2018-06-19T21:28:57.565Z,99931.73
2018-06-19T21:31:28.278Z,99938.72
2018-06-19T21:33:58.651Z,99934.26
2018-06-19T21:36:29.296Z,99936.30
2018-06-19T21:39:00.013Z,99940.47
2018-06-19T21:41:30.690Z,99940.75
2018-06-19T21:44:01.519Z,99947.54
2018-06-19T21:46:32.166Z,99944.88
2018-06-19T21:49:02.512Z,99942.56
2018-06-19T21:51:33.318Z,99943.09
2018-06-19T21:54:04.289Z,99945.77
2018-06-19T21:56:35.911Z,99938.02
2018-06-19T21:59:06.400Z,99934.08
2018-06-19T22:01:36.978Z,99936.52
2018-06-19T22:04:07.226Z,99933.93
2018-06-19T22:06:37.975Z,99939.52
2018-06-19T22:09:09.334Z,99939.34
2018-06-19T22:11:40.007Z,99944.01
2018-06-19T22:14:10.679Z,99950.41
2018-06-19T22:16:41.270Z,99945.59
2018-06-19T22:19:12.286Z,99944.58
2018-06-19T22:22:04.124Z,99944.58
2018-06-19T22:24:34.694Z,99943.78
2018-06-19T22:27:05.269Z,99938.23
2018-06-19T22:29:36.065Z,99938.81
2018-06-19T22:32:06.712Z,99935.91
2018-06-19T22:34:37.401Z,99937.52
2018-06-19T22:37:07.486Z,99941.41
2018-06-19T22:39:38.281Z,99943.97
2018-06-19T22:42:08.983Z,99943.07
2018-06-19T22:44:39.597Z,99943.09
2018-06-19T22:47:10.304Z,99938.62
2018-06-19T22:49:41.341Z,99946.71
2018-06-19T22:52:12.010Z,99945.05
2018-06-19T22:54:42.416Z,99942.36
2018-06-19T22:57:13.018Z,99948.67
2018-06-19T22:59:44.011Z,99949.06
2018-06-19T23:02:14.497Z,99941.24
2018-06-19T23:04:45.331Z,99944.73
2018-06-19T23:07:16.139Z,99946.03
2018-06-19T23:09:47.002Z,99946.93
2018-06-19T23:12:17.630Z,99954.48
2018-06-19T23:14:48.366Z,99951.76
2018-06-19T23:17:18.993Z,99953.18
2018-06-19T23:19:49.661Z,99953.92
2018-06-19T23:22:21.222Z,99954.66
2018-06-19T23:24:51.581Z,99954.09
2018-06-19T23:27:22.314Z,99946.49
2018-06-19T23:29:53.253Z,99949.91
2018-06-19T23:32:23.886Z,99948.91
2018-06-19T23:34:54.734Z,99944.50
2018-06-19T23:37:25.419Z,99936.02
2018-06-19T23:39:56.009Z,99942.24
2018-06-19T23:42:26.621Z,99939.27
2018-06-19T23:44:57.623Z,99931.63
2018-06-19T23:47:28.416Z,99936.84
2018-06-19T23:49:59.303Z,99930.05
2018-06-19T23:52:30.354Z,99935.23
2018-06-19T23:55:01.420Z,99925.05
2018-06-19T23:57:32.069Z,99927.26
